Time;durP1;ratioP1;P1;durP2;ratioP2;P2;SDS_P1;SDS_P2;PMS_P1;PMS_P2;Temp;Humidity;BMP_temperature;BMP_pressure;BME280_temperature;BME280_humidity;BME280_pressure;Samples;Min_cycle;Max_cycle;Signal;HPM_P1;HPM_P2
2022/11/21 00:05:00;;;;;;;;;;;;;;;;;;10498667;28;19928;-65
2022/11/21 00:10:02;;;;;;;;;;;;;;;;;;10498475;28;19928;-65
2022/11/21 00:15:05;;;;;;;;;;;;;;;;;;10497835;28;19932;-65
2022/11/21 00:20:07;;;;;;;;;;;;;;;;;;10497675;28;20289;-65
2022/11/21 00:25:09;;;;;;;;;;;;;;;;;;10497763;28;19925;-65
2022/11/21 00:30:11;;;;;;;;;;;;;;;;;;10498152;28;19924;-64
2022/11/21 00:35:13;;;;;;;;;;;;;;;;;;10498834;28;19974;-65
2022/11/21 00:40:15;;;;;;;;;;;;;;;;;;10505734;28;19924;-65
2022/11/21 00:45:17;;;;;;;;;;;;;;;;;;10505525;28;19928;-65
2022/11/21 00:50:25;;;;;;;;;;;;;;;;;;10504775;28;19928;-65
2022/11/21 00:55:27;;;;;;;;;;;;;;;;;;10504508;28;20382;-65
2022/11/21 01:00:29;;;;;;;;;;;;;;;;;;10504306;28;19925;-65
2022/11/21 01:05:31;;;;;;;;;;;;;;;;;;10504765;28;19929;-65
2022/11/21 01:10:34;;;;;;;;;;;;;;;;;;10504579;28;19932;-64
2022/11/21 01:15:36;;;;;;;;;;;;;;;;;;10504487;28;19932;-65
2022/11/21 01:20:38;;;;;;;;;;;;;;;;;;10504509;28;19970;-65
2022/11/21 01:25:40;;;;;;;;;;;;;;;;;;10503469;28;19925;-64
2022/11/21 01:30:42;;;;;;;;;;;;;;;;;;10503165;28;19924;-65
2022/11/21 01:35:45;;;;;;;;;;;;;;;;;;10503023;28;20317;-64
2022/11/21 01:40:47;;;;;;;;;;;;;;;;;;10503289;28;19944;-65
2022/11/21 01:45:49;;;;;;;;;;;;;;;;;;10502483;28;20375;-65
2022/11/21 01:50:51;;;;;;;;;;;;;;;;;;10502087;28;19985;-65
2022/11/21 01:55:53;;;;;;;;;;;;;;;;;;10502221;28;19928;-65
2022/11/21 02:00:55;;;;;;;;;;;;;;;;;;10502025;28;20346;-64
2022/11/21 02:05:57;;;;;;;;;;;;;;;;;;10501827;28;20063;-64
2022/11/21 02:10:59;;;;;;;;;;;;;;;;;;10502108;28;19928;-65
2022/11/21 02:16:01;;;;;;;;;;;;;;;;;;10502004;28;19932;-65
2022/11/21 02:21:03;;;;;;;;;;;;;;;;;;10501202;28;19978;-64
2022/11/21 02:26:05;;;;;;;;;;;;;;;;;;10501579;28;19932;-65
2022/11/21 02:31:07;;;;;;;;;;;;;;;;;;10501161;28;19954;-65
2022/11/21 02:36:09;;;;;;;;;;;;;;;;;;10501422;28;19974;-65
2022/11/21 02:41:11;;;;;;;;;;;;;;;;;;10500270;28;20437;-64
2022/11/21 02:46:13;;;;;;;;;;;;;;;;;;10500076;28;20322;-65
2022/11/21 02:51:15;;;;;;;;;;;;;;;;;;10499920;28;19931;-64
2022/11/21 02:56:18;;;;;;;;;;;;;;;;;;10499876;28;20349;-65
2022/11/21 03:01:20;;;;;;;;;;;;;;;;;;10499762;28;19974;-64
2022/11/21 03:06:22;;;;;;;;;;;;;;;;;;10500193;28;19924;-65
2022/11/21 03:11:24;;;;;;;;;;;;;;;;;;10499958;28;19978;-65
2022/11/21 03:16:26;;;;;;;;;;;;;;;;;;10499280;28;19928;-64
2022/11/21 03:21:28;;;;;;;;;;;;;;;;;;10499567;28;19974;-65
2022/11/21 03:26:30;;;;;;;;;;;;;;;;;;10499478;28;19924;-64
2022/11/21 03:31:32;;;;;;;;;;;;;;;;;;10499291;28;19925;-65
2022/11/21 03:36:34;;;;;;;;;;;;;;;;;;10499225;28;19978;-64
2022/11/21 03:41:36;;;;;;;;;;;;;;;;;;10499290;28;19974;-64
2022/11/21 03:46:38;;;;;;;;;;;;;;;;;;10498433;28;20002;-64
2022/11/21 03:51:40;;;;;;;;;;;;;;;;;;10498029;28;19947;-64
2022/11/21 03:56:42;;;;;;;;;;;;;;;;;;10498849;28;19970;-64
2022/11/21 04:01:45;;;;;;;;;;;;;;;;;;10503640;22;19924;-62
2022/11/21 04:06:47;;;;;;;;;;;;;;;;;;10456150;28;19971;-62
2022/11/21 04:11:49;;;;;;;;;;;;;;;;;;10459991;28;20372;-62
2022/11/21 04:16:51;;;;;;;;;;;;;;;;;;10464756;28;20421;-62
2022/11/21 04:21:54;;;;;;;;;;;;;;;;;;10465172;28;19925;-62
2022/11/21 04:26:56;;;;;;;;;;;;;;;;;;10464369;28;20326;-62
2022/11/21 04:31:58;;;;;;;;;;;;;;;;;;10464716;28;19928;-62
2022/11/21 04:37:00;;;;;;;;;;;;;;;;;;10464626;28;19929;-62
2022/11/21 04:42:02;;;;;;;;;;;;;;;;;;10464404;28;19931;-62
2022/11/21 04:47:04;;;;;;;;;;;;;;;;;;10463598;28;20292;-63
2022/11/21 04:52:06;;;;;;;;;;;;;;;;;;10463939;28;19931;-62
2022/11/21 04:57:08;;;;;;;;;;;;;;;;;;10463943;28;19928;-64
2022/11/21 05:02:10;;;;;;;;;;;;;;;;;;10463395;28;19925;-64
2022/11/21 05:07:12;;;;;;;;;;;;;;;;;;10463447;28;19971;-64
2022/11/21 05:17:35;;;;;;;;;;;;;;;;;;10462401;28;20364;-64
2022/11/21 05:22:38;;;;;;;;;;;;;;;;;;10462376;28;19924;-64
2022/11/21 05:27:40;;;;;;;;;;;;;;;;;;10461993;28;20456;-64
2022/11/21 05:32:42;;;;;;;;;;;;;;;;;;10462426;28;19925;-63
2022/11/21 05:37:44;;;;;;;;;;;;;;;;;;10461633;28;20292;-64
2022/11/21 05:48:07;;;;;;;;;;;;;;;;;;10461182;28;19925;-63
2022/11/21 05:53:09;;;;;;;;;;;;;;;;;;10460934;28;20387;-64
2022/11/21 05:58:11;;;;;;;;;;;;;;;;;;10460840;28;19924;-64
2022/11/21 06:03:25;;;;;;;;;;;;;;;;;;10460873;28;19978;-64
2022/11/21 06:08:28;;;;;;;;;;;;;;;;;;10461068;28;19960;-64
2022/11/21 06:13:30;;;;;;;;;;;;;;;;;;10460737;28;19932;-64
2022/11/21 06:18:32;;;;;;;;;;;;;;;;;;10459972;28;19924;-63
2022/11/21 06:23:34;;;;;;;;;;;;;;;;;;10460383;28;19924;-64
2022/11/21 06:28:36;;;;;;;;;;;;;;;;;;10460243;28;19932;-64
2022/11/21 06:33:38;;;;;;;;;;;;;;;;;;10459145;28;19925;-64
2022/11/21 06:38:40;;;;;;;;;;;;;;;;;;10458800;28;19928;-66
2022/11/21 06:43:42;;;;;;;;;;;;;;;;;;10459675;28;19924;-66
2022/11/21 06:48:44;;;;;;;;;;;;;;;;;;10458862;28;20390;-66
2022/11/21 06:53:47;;;;;;;;;;;;;;;;;;10459177;28;19928;-66
2022/11/21 06:58:49;;;;;;;;;;;;;;;;;;10458495;28;19948;-66
2022/11/21 07:03:51;;;;;;;;;;;;;;;;;;10457307;28;19925;-66
2022/11/21 07:08:53;;;;;;;;;;;;;;;;;;10458099;28;20394;-66
2022/11/21 07:14:15;;;;;;;;;;;;;;;;;;10457819;28;20031;-66
2022/11/21 07:19:17;;;;;;;;;;;;;;;;;;10458418;28;19925;-66
2022/11/21 07:24:19;;;;;;;;;;;;;;;;;;10458248;28;19928;-67
2022/11/21 07:29:21;;;;;;;;;;;;;;;;;;10457397;28;19968;-64
2022/11/21 07:34:24;;;;;;;;;;;;;;;;;;10457224;28;20368;-64
2022/11/21 07:39:26;;;;;;;;;;;;;;;;;;10457808;28;19931;-64
2022/11/21 07:44:28;;;;;;;;;;;;;;;;;;10457661;28;19931;-63
2022/11/21 07:49:30;;;;;;;;;;;;;;;;;;10456940;28;20371;-64
2022/11/21 07:54:32;;;;;;;;;;;;;;;;;;10457409;28;19971;-64
2022/11/21 07:59:34;;;;;;;;;;;;;;;;;;10456698;28;19924;-64
2022/11/21 08:04:36;;;;;;;;;;;;;;;;;;10456739;28;19924;-64
2022/11/21 08:09:38;;;;;;;;;;;;;;;;;;10456508;28;19994;-64
2022/11/21 08:14:40;;;;;;;;;;;;;;;;;;10456449;28;19925;-64
2022/11/21 08:19:43;;;;;;;;;;;;;;;;;;10456965;28;19970;-64
2022/11/21 08:24:45;;;;;;;;;;;;;;;;;;10456872;28;19924;-64
2022/11/21 08:29:47;;;;;;;;;;;;;;;;;;10456663;28;20038;-64
2022/11/21 08:34:49;;;;;;;;;;;;;;;;;;10456682;28;19924;-64
2022/11/21 08:39:51;;;;;;;;;;;;;;;;;;10454810;28;19925;-64
2022/11/21 08:44:53;;;;;;;;;;;;;;;;;;10455905;28;19925;-64
2022/11/21 08:49:55;;;;;;;;;;;;;;;;;;10455686;28;20275;-64
2022/11/21 08:54:57;;;;;;;;;;;;;;;;;;10456332;28;19928;-64
2022/11/21 08:59:59;;;;;;;;;;;;;;;;;;10462701;28;19929;-64
2022/11/21 09:05:01;;;;;;;;;;;;;;;;;;10462828;28;20257;-64
2022/11/21 09:10:03;;;;;;;;;;;;;;;;;;10463309;28;19975;-64
2022/11/21 09:20:26;;;;;;;;;;;;;;;;;;10462959;28;19971;-64
2022/11/21 09:25:28;;;;;;;;;;;;;;;;;;10462218;28;19963;-64
2022/11/21 09:30:30;;;;;;;;;;;;;;;;;;10462534;28;19928;-64
2022/11/21 09:35:32;;;;;;;;;;;;;;;;;;10461769;28;20437;-64
2022/11/21 09:40:35;;;;;;;;;;;;;;;;;;10461688;28;19924;-64
2022/11/21 09:45:37;;;;;;;;;;;;;;;;;;10462008;28;19978;-64
2022/11/21 09:50:39;;;;;;;;;;;;;;;;;;10461721;28;19951;-64
2022/11/21 09:55:41;;;;;;;;;;;;;;;;;;10461590;28;19929;-64
2022/11/21 10:00:43;;;;;;;;;;;;;;;;;;10460700;28;20367;-64
2022/11/21 10:05:45;;;;;;;;;;;;;;;;;;10460477;28;20395;-64
2022/11/21 10:10:47;;;;;;;;;;;;;;;;;;10460339;28;19971;-64
2022/11/21 10:15:49;;;;;;;;;;;;;;;;;;10460225;28;20376;-64
2022/11/21 10:20:52;;;;;;;;;;;;;;;;;;10459988;28;19925;-64
2022/11/21 10:25:54;;;;;;;;;;;;;;;;;;10460366;28;19928;-64
2022/11/21 10:30:56;;;;;;;;;;;;;;;;;;10460150;28;19929;-64
2022/11/21 10:35:58;;;;;;;;;;;;;;;;;;10460069;28;19925;-64
2022/11/21 10:41:00;;;;;;;;;;;;;;;;;;10459156;28;20387;-64
2022/11/21 10:46:02;;;;;;;;;;;;;;;;;;10459672;28;19933;-64
2022/11/21 10:51:05;;;;;;;;;;;;;;;;;;10459589;28;19925;-64
2022/11/21 10:56:07;;;;;;;;;;;;;;;;;;10455382;28;19925;-64
2022/11/21 11:01:09;;;;;;;;;;;;;;;;;;10457947;28;19931;-64
2022/11/21 11:06:11;;;;;;;;;;;;;;;;;;10455217;28;20011;-64
2022/11/21 11:11:13;;;;;;;;;;;;;;;;;;10457865;28;19924;-64
2022/11/21 11:16:16;;;;;;;;;;;;;;;;;;10457086;28;19929;-64
2022/11/21 11:21:18;;;;;;;;;;;;;;;;;;10456989;28;19925;-64
2022/11/21 11:26:20;;;;;;;;;;;;;;;;;;10456517;28;20322;-64
2022/11/21 11:31:22;;;;;;;;;;;;;;;;;;10457382;28;20350;-64
2022/11/21 11:36:24;;;;;;;;;;;;;;;;;;10455604;28;19979;-64
2022/11/21 11:41:26;;;;;;;;;;;;;;;;;;10454569;28;19925;-64
2022/11/21 11:51:49;;;;;;;;;;;;;;;;;;10454093;28;19928;-64
2022/11/21 11:56:51;;;;;;;;;;;;;;;;;;10451921;28;20269;-65
2022/11/21 12:01:53;;;;;;;;;;;;;;;;;;10449736;28;19925;-64
2022/11/21 12:06:55;;;;;;;;;;;;;;;;;;10454811;28;19925;-64
2022/11/21 12:12:17;;;;;;;;;;;;;;;;;;10454287;28;19960;-64
2022/11/21 12:17:19;;;;;;;;;;;;;;;;;;10455655;28;19949;-64
2022/11/21 12:22:22;;;;;;;;;;;;;;;;;;10456062;28;19929;-64
2022/11/21 12:27:24;;;;;;;;;;;;;;;;;;10456192;28;19932;-64
2022/11/21 12:32:26;;;;;;;;;;;;;;;;;;10457945;28;20334;-64
2022/11/21 12:37:28;;;;;;;;;;;;;;;;;;10492938;28;19925;-64
2022/11/21 12:42:48;;;;;;;;;;;;;;;;;;10500965;28;19991;-64
2022/11/21 12:58:32;;;;;;;;;;;;;;;;;;10463240;28;19955;-64
2022/11/21 13:03:34;;;;;;;;;;;;;;;;;;10462348;28;19925;-64
2022/11/21 13:08:36;;;;;;;;;;;;;;;;;;10462130;28;19928;-64
2022/11/21 13:13:38;;;;;;;;;;;;;;;;;;10462396;28;19924;-64
2022/11/21 13:18:40;;;;;;;;;;;;;;;;;;10460372;28;20371;-64
2022/11/21 13:23:42;;;;;;;;;;;;;;;;;;10477159;28;19954;-65
2022/11/21 13:28:44;;;;;;;;;;;;;;;;;;10502337;28;19974;-65
2022/11/21 13:33:47;;;;;;;;;;;;;;;;;;10502715;28;19951;-65
2022/11/21 13:38:49;;;;;;;;;;;;;;;;;;10503758;28;20019;-65
2022/11/21 13:43:51;;;;;;;;;;;;;;;;;;10502626;28;19956;-65
2022/11/21 13:48:53;;;;;;;;;;;;;;;;;;10502723;28;19925;-65
2022/11/21 13:53:55;;;;;;;;;;;;;;;;;;10502499;28;20375;-65
2022/11/21 13:58:59;;;;;;;;;;;;;;;;;;10485289;28;20384;-65
2022/11/21 14:04:01;;;;;;;;;;;;;;;;;;10459615;28;19925;-65
2022/11/21 14:09:03;;;;;;;;;;;;;;;;;;10460366;28;19925;-65
2022/11/21 14:14:05;;;;;;;;;;;;;;;;;;10460060;28;19931;-65
2022/11/21 14:19:07;;;;;;;;;;;;;;;;;;10460018;28;19925;-65
2022/11/21 14:24:09;;;;;;;;;;;;;;;;;;10459789;28;19939;-65
2022/11/21 14:29:12;;;;;;;;;;;;;;;;;;10459526;28;19950;-65
2022/11/21 14:34:14;;;;;;;;;;;;;;;;;;10457844;28;19924;-65
2022/11/21 14:39:16;;;;;;;;;;;;;;;;;;10439441;28;19971;-66
2022/11/21 14:44:38;;;;;;;;;;;;;;;;;;10455865;28;19972;-65
2022/11/21 14:49:40;;;;;;;;;;;;;;;;;;10455701;28;20430;-65
2022/11/21 14:54:42;;;;;;;;;;;;;;;;;;10497214;28;20452;-65
2022/11/21 15:00:01;;;;;;;;;;;;;;;;;;10498188;28;19999;-65
2022/11/21 15:05:03;;;;;;;;;;;;;;;;;;10498740;28;19986;-65
2022/11/21 15:10:05;;;;;;;;;;;;;;;;;;10499334;28;19929;-65
2022/11/21 15:15:27;;;;;;;;;;;;;;;;;;10499135;28;19970;-65
2022/11/21 15:20:30;;;;;;;;;;;;;;;;;;10499146;28;20422;-65
2022/11/21 15:25:32;;;;;;;;;;;;;;;;;;10499685;28;19928;-65
2022/11/21 15:30:34;;;;;;;;;;;;;;;;;;10499537;28;19925;-65
2022/11/21 15:35:36;;;;;;;;;;;;;;;;;;10499182;28;19925;-65
2022/11/21 15:40:38;;;;;;;;;;;;;;;;;;10498567;28;20364;-65
2022/11/21 15:45:45;;;;;;;;;;;;;;;;;;10499231;28;19925;-66
2022/11/21 15:50:47;;;;;;;;;;;;;;;;;;10498317;28;20301;-65
2022/11/21 15:55:51;;;;;;;;;;;;;;;;;;10499024;28;19959;-65
2022/11/21 16:00:53;;;;;;;;;;;;;;;;;;10498205;28;19932;-65
2022/11/21 16:05:55;;;;;;;;;;;;;;;;;;10500119;28;19928;-65
2022/11/21 16:10:57;;;;;;;;;;;;;;;;;;10506568;28;20325;-65
2022/11/21 16:15:59;;;;;;;;;;;;;;;;;;10507066;28;19932;-65
2022/11/21 16:21:01;;;;;;;;;;;;;;;;;;10477306;22;19938;-63
2022/11/21 16:26:03;;;;;;;;;;;;;;;;;;10465234;28;19937;-63
2022/11/21 16:31:05;;;;;;;;;;;;;;;;;;10464301;28;20391;-63
2022/11/21 16:36:08;;;;;;;;;;;;;;;;;;10464348;28;19925;-64
2022/11/21 16:41:10;;;;;;;;;;;;;;;;;;10464667;28;19925;-63
2022/11/21 16:46:12;;;;;;;;;;;;;;;;;;10464497;28;19979;-64
2022/11/21 16:51:14;;;;;;;;;;;;;;;;;;10464160;28;19925;-63
2022/11/21 16:56:16;;;;;;;;;;;;;;;;;;10464037;28;19925;-64
2022/11/21 17:01:18;;;;;;;;;;;;;;;;;;10463865;28;19925;-63
2022/11/21 17:06:21;;;;;;;;;;;;;;;;;;10463100;28;19968;-63
2022/11/21 17:11:25;;;;;;;;;;;;;;;;;;10462786;28;20425;-63
2022/11/21 17:16:27;;;;;;;;;;;;;;;;;;10462175;28;20315;-63
2022/11/21 17:21:29;;;;;;;;;;;;;;;;;;10462044;28;19925;-63
2022/11/21 17:26:31;;;;;;;;;;;;;;;;;;10462904;28;19929;-63
2022/11/21 17:31:33;;;;;;;;;;;;;;;;;;10461939;28;20379;-63
2022/11/21 17:36:35;;;;;;;;;;;;;;;;;;10462519;28;19924;-63
2022/11/21 17:41:38;;;;;;;;;;;;;;;;;;10462291;28;19924;-63
2022/11/21 17:46:40;;;;;;;;;;;;;;;;;;10461504;28;20375;-63
2022/11/21 17:51:42;;;;;;;;;;;;;;;;;;10461185;28;19924;-63
2022/11/21 17:56:45;;;;;;;;;;;;;;;;;;10461741;28;19925;-63
2022/11/21 18:01:52;;;;;;;;;;;;;;;;;;10461612;28;20015;-63
2022/11/21 18:06:54;;;;;;;;;;;;;;;;;;10460712;28;20291;-63
2022/11/21 18:11:56;;;;;;;;;;;;;;;;;;10461094;28;19932;-63
2022/11/21 18:16:58;;;;;;;;;;;;;;;;;;10460194;28;19924;-63
2022/11/21 18:22:00;;;;;;;;;;;;;;;;;;10460192;28;19925;-63
2022/11/21 18:27:02;;;;;;;;;;;;;;;;;;10460539;28;19925;-63
2022/11/21 18:32:05;;;;;;;;;;;;;;;;;;10459220;28;19929;-63
2022/11/21 18:37:07;;;;;;;;;;;;;;;;;;10459672;28;20371;-63
2022/11/21 18:42:09;;;;;;;;;;;;;;;;;;10459954;28;19925;-63
2022/11/21 18:47:11;;;;;;;;;;;;;;;;;;10459716;28;19925;-63
2022/11/21 18:52:21;;;;;;;;;;;;;;;;;;10459504;28;19979;-63
2022/11/21 18:57:23;;;;;;;;;;;;;;;;;;10458764;28;20265;-63
2022/11/21 19:02:25;;;;;;;;;;;;;;;;;;10458506;28;19932;-63
2022/11/21 19:07:27;;;;;;;;;;;;;;;;;;10458276;28;20375;-63
2022/11/21 19:12:30;;;;;;;;;;;;;;;;;;10458677;28;19925;-63
2022/11/21 19:17:37;;;;;;;;;;;;;;;;;;10458298;28;19971;-63
2022/11/21 19:22:39;;;;;;;;;;;;;;;;;;10458435;28;19925;-63
2022/11/21 19:27:41;;;;;;;;;;;;;;;;;;10457627;28;20356;-63
2022/11/21 19:32:43;;;;;;;;;;;;;;;;;;10457297;28;20402;-63
2022/11/21 19:37:45;;;;;;;;;;;;;;;;;;10457304;28;19925;-63
2022/11/21 19:42:47;;;;;;;;;;;;;;;;;;10456838;28;19924;-63
2022/11/21 19:47:55;;;;;;;;;;;;;;;;;;10457685;28;19925;-63
2022/11/21 19:52:59;;;;;;;;;;;;;;;;;;10456863;28;20418;-63
2022/11/21 19:58:01;;;;;;;;;;;;;;;;;;10456862;28;19932;-63
2022/11/21 20:03:03;;;;;;;;;;;;;;;;;;10456789;28;20407;-63
2022/11/21 20:08:05;;;;;;;;;;;;;;;;;;10457209;28;19932;-63
2022/11/21 20:13:17;;;;;;;;;;;;;;;;;;10455980;28;19978;-63
2022/11/21 20:18:19;;;;;;;;;;;;;;;;;;10456313;28;19925;-63
2022/11/21 20:23:21;;;;;;;;;;;;;;;;;;10457016;28;19925;-63
2022/11/21 20:28:23;;;;;;;;;;;;;;;;;;10456948;28;19932;-63
2022/11/21 20:33:25;;;;;;;;;;;;;;;;;;10456228;28;20318;-63
2022/11/21 20:38:27;;;;;;;;;;;;;;;;;;10456114;28;19932;-63
2022/11/21 20:43:29;;;;;;;;;;;;;;;;;;10455979;28;19929;-63
2022/11/21 20:48:51;;;;;;;;;;;;;;;;;;10456449;28;19970;-63
2022/11/21 20:53:53;;;;;;;;;;;;;;;;;;10459665;28;19933;-63
2022/11/21 20:59:01;;;;;;;;;;;;;;;;;;10463396;28;19925;-63
2022/11/21 21:04:03;;;;;;;;;;;;;;;;;;10463802;28;19976;-63
2022/11/21 21:09:05;;;;;;;;;;;;;;;;;;10462936;28;19925;-63
2022/11/21 21:14:07;;;;;;;;;;;;;;;;;;10463355;28;19925;-63
2022/11/21 21:19:09;;;;;;;;;;;;;;;;;;10462668;28;19928;-63
2022/11/21 21:24:11;;;;;;;;;;;;;;;;;;10462392;28;19987;-63
2022/11/21 21:29:13;;;;;;;;;;;;;;;;;;10463475;28;19932;-63
2022/11/21 21:34:16;;;;;;;;;;;;;;;;;;10461912;28;19970;-63
2022/11/21 21:39:18;;;;;;;;;;;;;;;;;;10461739;28;19925;-63
2022/11/21 21:44:20;;;;;;;;;;;;;;;;;;10461590;28;20253;-63
2022/11/21 21:49:22;;;;;;;;;;;;;;;;;;10461395;28;20331;-63
2022/11/21 21:54:25;;;;;;;;;;;;;;;;;;10461130;28;20276;-63
2022/11/21 21:59:27;;;;;;;;;;;;;;;;;;10461069;28;19924;-63
2022/11/21 22:04:30;;;;;;;;;;;;;;;;;;10460125;28;19983;-63
2022/11/21 22:09:33;;;;;;;;;;;;;;;;;;10459956;28;19929;-63
2022/11/21 22:14:35;;;;;;;;;;;;;;;;;;10459260;28;19948;-63
2022/11/21 22:19:37;;;;;;;;;;;;;;;;;;10459912;28;19971;-63
2022/11/21 22:24:39;;;;;;;;;;;;;;;;;;10460851;28;19929;-63
2022/11/21 22:29:41;;;;;;;;;;;;;;;;;;10460428;28;19925;-63
2022/11/21 22:34:43;;;;;;;;;;;;;;;;;;10459574;28;20304;-63
2022/11/21 22:39:45;;;;;;;;;;;;;;;;;;10460065;28;19924;-62
2022/11/21 22:44:48;;;;;;;;;;;;;;;;;;10459842;28;19925;-62
2022/11/21 22:49:50;;;;;;;;;;;;;;;;;;10459659;28;19971;-63
2022/11/21 22:54:52;;;;;;;;;;;;;;;;;;10458773;28;20338;-62
2022/11/21 22:59:54;;;;;;;;;;;;;;;;;;10459263;28;19935;-62
2022/11/21 23:04:56;;;;;;;;;;;;;;;;;;10458484;28;20323;-63
2022/11/21 23:09:58;;;;;;;;;;;;;;;;;;10458820;28;19924;-63
2022/11/21 23:15:00;;;;;;;;;;;;;;;;;;10457437;28;19971;-63
2022/11/21 23:20:02;;;;;;;;;;;;;;;;;;10457952;28;19971;-63
2022/11/21 23:25:04;;;;;;;;;;;;;;;;;;10457642;28;19936;-63
2022/11/21 23:30:07;;;;;;;;;;;;;;;;;;10467523;28;19932;-63
2022/11/21 23:35:09;;;;;;;;;;;;;;;;;;10456068;28;19925;-63
2022/11/21 23:40:11;;;;;;;;;;;;;;;;;;10456882;28;19925;-63
2022/11/21 23:45:13;;;;;;;;;;;;;;;;;;10455489;28;19951;-63
2022/11/21 23:50:15;;;;;;;;;;;;;;;;;;10454711;28;19933;-63
2022/11/21 23:55:19;;;;;;;;;;;;;;;;;;10455446;28;19951;-63
